sensor_id;sensor_type;location;lat;lon;timestamp;pressure;altitude;pressure_sealevel;temperature;humidity
74218;BME280;62579;47.288;18.646;2022-08-19T00:02:22;99300.22;;;24.46;51.14
74218;BME280;62579;47.288;18.646;2022-08-19T00:04:47;99304.81;;;24.42;51.32
74218;BME280;62579;47.288;18.646;2022-08-19T00:07:17;99303.84;;;24.37;51.19
74218;BME280;62579;47.288;18.646;2022-08-19T00:09:43;99308.09;;;24.38;50.38
74218;BME280;62579;47.288;18.646;2022-08-19T00:12:08;99313.53;;;24.25;50.38
74218;BME280;62579;47.288;18.646;2022-08-19T00:14:34;99307.97;;;24.13;50.75
74218;BME280;62579;47.288;18.646;2022-08-19T00:17:00;99298.88;;;24.13;51.02
74218;BME280;62579;47.288;18.646;2022-08-19T00:19:26;99296.84;;;24.13;51.02
74218;BME280;62579;47.288;18.646;2022-08-19T00:21:51;99295.47;;;24.03;51.69
74218;BME280;62579;47.288;18.646;2022-08-19T00:24:17;99294.75;;;24.02;51.98
74218;BME280;62579;47.288;18.646;2022-08-19T00:26:43;99294.63;;;24.00;51.98
74218;BME280;62579;47.288;18.646;2022-08-19T00:29:11;99290.28;;;23.97;52.22
74218;BME280;62579;47.288;18.646;2022-08-19T00:31:37;99295.38;;;24.01;52.03
74218;BME280;62579;47.288;18.646;2022-08-19T00:34:02;99289.81;;;24.01;52.04
74218;BME280;62579;47.288;18.646;2022-08-19T00:36:29;99288.84;;;24.08;51.97
74218;BME280;62579;47.288;18.646;2022-08-19T00:38:54;99287.53;;;24.09;52.24
74218;BME280;62579;47.288;18.646;2022-08-19T00:41:21;99285.69;;;24.02;52.72
74218;BME280;62579;47.288;18.646;2022-08-19T00:44:02;99284.00;;;24.08;52.63
74218;BME280;62579;47.288;18.646;2022-08-19T00:49:06;99296.09;;;24.13;52.75
74218;BME280;62579;47.288;18.646;2022-08-19T00:51:35;99283.50;;;24.00;53.28
74218;BME280;62579;47.288;18.646;2022-08-19T00:54:01;99276.13;;;24.05;53.40
74218;BME280;62579;47.288;18.646;2022-08-19T00:56:27;99278.22;;;24.04;53.36
74218;BME280;62579;47.288;18.646;2022-08-19T00:58:56;99283.41;;;24.10;53.18
74218;BME280;62579;47.288;18.646;2022-08-19T01:01:21;99286.66;;;24.06;53.34
74218;BME280;62579;47.288;18.646;2022-08-19T01:03:47;99287.88;;;24.03;53.23
74218;BME280;62579;47.288;18.646;2022-08-19T01:06:12;99274.81;;;24.06;52.75
74218;BME280;62579;47.288;18.646;2022-08-19T01:08:38;99278.00;;;24.12;53.32
74218;BME280;62579;47.288;18.646;2022-08-19T01:11:04;99287.66;;;24.11;53.73
74218;BME280;62579;47.288;18.646;2022-08-19T01:13:32;99278.72;;;24.12;53.56
74218;BME280;62579;47.288;18.646;2022-08-19T01:16:05;99283.78;;;24.04;53.67
74218;BME280;62579;47.288;18.646;2022-08-19T01:18:32;99272.88;;;23.97;53.82
74218;BME280;62579;47.288;18.646;2022-08-19T01:21:05;99280.84;;;24.02;53.56
74218;BME280;62579;47.288;18.646;2022-08-19T01:23:32;99267.78;;;24.05;53.51
74218;BME280;62579;47.288;18.646;2022-08-19T01:26:13;99264.91;;;24.03;53.66
74218;BME280;62579;47.288;18.646;2022-08-19T01:28:40;99273.12;;;24.01;53.82
74218;BME280;62579;47.288;18.646;2022-08-19T01:31:07;99274.31;;;23.98;53.84
74218;BME280;62579;47.288;18.646;2022-08-19T01:33:33;99258.28;;;23.96;53.90
74218;BME280;62579;47.288;18.646;2022-08-19T01:36:11;99261.41;;;23.90;54.01
74218;BME280;62579;47.288;18.646;2022-08-19T01:38:39;99250.66;;;23.85;54.27
74218;BME280;62579;47.288;18.646;2022-08-19T01:41:05;99249.91;;;23.84;54.14
74218;BME280;62579;47.288;18.646;2022-08-19T01:43:31;99250.50;;;23.83;54.64
74218;BME280;62579;47.288;18.646;2022-08-19T01:45:57;99251.59;;;23.78;54.77
74218;BME280;62579;47.288;18.646;2022-08-19T01:48:22;99245.28;;;23.77;54.58
74218;BME280;62579;47.288;18.646;2022-08-19T01:50:48;99241.56;;;23.73;54.75
74218;BME280;62579;47.288;18.646;2022-08-19T01:53:14;99236.00;;;23.73;54.63
74218;BME280;62579;47.288;18.646;2022-08-19T01:55:41;99227.16;;;23.65;54.87
74218;BME280;62579;47.288;18.646;2022-08-19T01:58:17;99230.78;;;23.67;54.77
74218;BME280;62579;47.288;18.646;2022-08-19T02:00:44;99226.59;;;23.66;54.57
74218;BME280;62579;47.288;18.646;2022-08-19T02:03:10;99230.56;;;23.63;54.36
74218;BME280;62579;47.288;18.646;2022-08-19T02:05:36;99220.78;;;23.62;54.83
74218;BME280;62579;47.288;18.646;2022-08-19T02:08:02;99220.66;;;23.60;55.02
74218;BME280;62579;47.288;18.646;2022-08-19T02:10:27;99219.19;;;23.59;54.97
74218;BME280;62579;47.288;18.646;2022-08-19T02:12:53;99213.88;;;23.52;55.46
74218;BME280;62579;47.288;18.646;2022-08-19T02:15:19;99219.44;;;23.52;55.30
74218;BME280;62579;47.288;18.646;2022-08-19T02:17:45;99218.69;;;23.40;56.04
74218;BME280;62579;47.288;18.646;2022-08-19T02:20:11;99222.91;;;23.41;55.86
74218;BME280;62579;47.288;18.646;2022-08-19T02:22:38;99233.59;;;23.34;56.25
74218;BME280;62579;47.288;18.646;2022-08-19T02:25:05;99235.69;;;23.34;56.10
74218;BME280;62579;47.288;18.646;2022-08-19T02:27:31;99242.16;;;23.27;56.09
74218;BME280;62579;47.288;18.646;2022-08-19T02:29:57;99244.69;;;23.23;56.24
74218;BME280;62579;47.288;18.646;2022-08-19T02:32:22;99245.16;;;23.19;56.33
74218;BME280;62579;47.288;18.646;2022-08-19T02:34:47;99246.84;;;23.24;56.11
74218;BME280;62579;47.288;18.646;2022-08-19T02:37:13;99250.09;;;23.21;56.35
74218;BME280;62579;47.288;18.646;2022-08-19T02:39:58;99246.44;;;23.07;56.97
74218;BME280;62579;47.288;18.646;2022-08-19T02:42:23;99247.13;;;22.96;57.58
74218;BME280;62579;47.288;18.646;2022-08-19T02:44:49;99244.88;;;23.04;57.22
74218;BME280;62579;47.288;18.646;2022-08-19T02:47:14;99243.16;;;22.99;57.46
74218;BME280;62579;47.288;18.646;2022-08-19T02:49:40;99241.34;;;23.03;57.07
74218;BME280;62579;47.288;18.646;2022-08-19T02:52:06;99242.31;;;23.08;57.04
74218;BME280;62579;47.288;18.646;2022-08-19T02:54:31;99254.28;;;23.10;57.13
74218;BME280;62579;47.288;18.646;2022-08-19T02:56:56;99252.84;;;23.09;56.88
74218;BME280;62579;47.288;18.646;2022-08-19T02:59:22;99253.69;;;23.12;57.03
74218;BME280;62579;47.288;18.646;2022-08-19T03:01:47;99265.25;;;23.08;57.22
74218;BME280;62579;47.288;18.646;2022-08-19T03:04:14;99272.00;;;23.05;56.92
74218;BME280;62579;47.288;18.646;2022-08-19T03:06:44;99263.22;;;23.09;56.81
74218;BME280;62579;47.288;18.646;2022-08-19T03:09:10;99270.09;;;23.08;57.29
74218;BME280;62579;47.288;18.646;2022-08-19T03:11:36;99269.63;;;23.11;57.29
74218;BME280;62579;47.288;18.646;2022-08-19T03:16:34;99272.34;;;23.00;57.56
74218;BME280;62579;47.288;18.646;2022-08-19T03:19:01;99270.41;;;23.02;57.26
74218;BME280;62579;47.288;18.646;2022-08-19T03:21:30;99267.06;;;23.04;57.26
74218;BME280;62579;47.288;18.646;2022-08-19T03:23:58;99264.63;;;22.98;57.92
74218;BME280;62579;47.288;18.646;2022-08-19T03:26:24;99257.03;;;22.99;57.91
74218;BME280;62579;47.288;18.646;2022-08-19T03:28:50;99272.34;;;23.00;57.79
74218;BME280;62579;47.288;18.646;2022-08-19T03:31:18;99274.59;;;22.92;57.98
74218;BME280;62579;47.288;18.646;2022-08-19T03:33:44;99286.34;;;22.81;58.36
74218;BME280;62579;47.288;18.646;2022-08-19T03:36:19;99282.16;;;22.80;58.15
74218;BME280;62579;47.288;18.646;2022-08-19T03:38:50;99287.38;;;22.85;58.15
74218;BME280;62579;47.288;18.646;2022-08-19T03:41:21;99290.13;;;22.85;58.00
74218;BME280;62579;47.288;18.646;2022-08-19T03:46:20;99284.09;;;22.89;58.10
74218;BME280;62579;47.288;18.646;2022-08-19T03:48:46;99290.25;;;22.87;58.22
74218;BME280;62579;47.288;18.646;2022-08-19T03:51:38;99293.50;;;22.84;58.29
74218;BME280;62579;47.288;18.646;2022-08-19T03:54:09;99292.50;;;22.79;58.51
74218;BME280;62579;47.288;18.646;2022-08-19T03:56:37;99289.88;;;22.81;58.20
74218;BME280;62579;47.288;18.646;2022-08-19T03:59:05;99296.41;;;22.86;58.06
74218;BME280;62579;47.288;18.646;2022-08-19T04:01:30;99290.59;;;22.82;58.33
74218;BME280;62579;47.288;18.646;2022-08-19T04:03:57;99294.44;;;22.77;58.35
74218;BME280;62579;47.288;18.646;2022-08-19T04:06:27;99297.94;;;22.77;58.38
74218;BME280;62579;47.288;18.646;2022-08-19T04:08:54;99294.31;;;22.75;57.76
74218;BME280;62579;47.288;18.646;2022-08-19T04:11:23;99292.06;;;22.83;58.06
74218;BME280;62579;47.288;18.646;2022-08-19T04:13:50;99289.00;;;22.79;58.07
74218;BME280;62579;47.288;18.646;2022-08-19T04:16:16;99290.00;;;22.83;58.38
74218;BME280;62579;47.288;18.646;2022-08-19T04:18:42;99293.78;;;22.88;58.48
74218;BME280;62579;47.288;18.646;2022-08-19T04:21:16;99299.03;;;22.84;58.56
74218;BME280;62579;47.288;18.646;2022-08-19T04:23:42;99290.00;;;22.83;58.60
74218;BME280;62579;47.288;18.646;2022-08-19T04:26:13;99298.47;;;22.85;58.38
74218;BME280;62579;47.288;18.646;2022-08-19T04:28:39;99301.25;;;22.85;58.59
74218;BME280;62579;47.288;18.646;2022-08-19T04:31:04;99310.75;;;22.82;58.94
74218;BME280;62579;47.288;18.646;2022-08-19T04:33:29;99316.41;;;22.84;59.13
74218;BME280;62579;47.288;18.646;2022-08-19T04:35:55;99315.69;;;22.84;59.11
74218;BME280;62579;47.288;18.646;2022-08-19T04:38:23;99310.88;;;22.84;59.01
74218;BME280;62579;47.288;18.646;2022-08-19T04:40:50;99311.00;;;22.86;58.89
74218;BME280;62579;47.288;18.646;2022-08-19T04:43:36;99320.72;;;22.97;58.57
74218;BME280;62579;47.288;18.646;2022-08-19T04:46:10;99339.22;;;23.04;58.90
74218;BME280;62579;47.288;18.646;2022-08-19T04:48:37;99333.94;;;23.08;59.42
74218;BME280;62579;47.288;18.646;2022-08-19T04:51:05;99332.28;;;23.14;58.61
74218;BME280;62579;47.288;18.646;2022-08-19T04:53:33;99325.78;;;23.21;58.18
74218;BME280;62579;47.288;18.646;2022-08-19T04:56:08;99325.97;;;23.35;57.77
74218;BME280;62579;47.288;18.646;2022-08-19T04:58:34;99319.88;;;23.48;58.44
74218;BME280;62579;47.288;18.646;2022-08-19T05:01:00;99323.91;;;23.57;58.09
74218;BME280;62579;47.288;18.646;2022-08-19T05:03:25;99318.81;;;23.53;57.86
74218;BME280;62579;47.288;18.646;2022-08-19T05:05:51;99320.38;;;23.56;57.59
74218;BME280;62579;47.288;18.646;2022-08-19T05:08:19;99326.00;;;23.68;57.42
74218;BME280;62579;47.288;18.646;2022-08-19T05:10:47;99333.25;;;23.73;57.28
74218;BME280;62579;47.288;18.646;2022-08-19T05:13:14;99328.94;;;23.81;56.77
74218;BME280;62579;47.288;18.646;2022-08-19T05:15:40;99329.91;;;23.98;56.60
74218;BME280;62579;47.288;18.646;2022-08-19T05:18:05;99314.00;;;24.10;56.38
74218;BME280;62579;47.288;18.646;2022-08-19T05:20:49;99317.41;;;24.20;56.22
74218;BME280;62579;47.288;18.646;2022-08-19T05:23:33;99317.53;;;24.33;55.95
74218;BME280;62579;47.288;18.646;2022-08-19T05:25:58;99320.91;;;24.43;55.58
74218;BME280;62579;47.288;18.646;2022-08-19T05:28:24;99314.09;;;24.58;55.15
74218;BME280;62579;47.288;18.646;2022-08-19T05:30:49;99311.78;;;24.66;54.93
74218;BME280;62579;47.288;18.646;2022-08-19T05:33:16;99313.72;;;24.75;54.74
74218;BME280;62579;47.288;18.646;2022-08-19T05:35:42;99298.25;;;24.84;54.43
74218;BME280;62579;47.288;18.646;2022-08-19T05:38:08;99309.59;;;24.99;54.47
74218;BME280;62579;47.288;18.646;2022-08-19T05:40:35;99310.53;;;25.04;54.24
74218;BME280;62579;47.288;18.646;2022-08-19T05:45:47;99313.84;;;25.26;53.42
74218;BME280;62579;47.288;18.646;2022-08-19T05:48:15;99311.50;;;25.34;52.97
74218;BME280;62579;47.288;18.646;2022-08-19T05:50:45;99315.25;;;25.38;53.10
74218;BME280;62579;47.288;18.646;2022-08-19T05:53:12;99320.91;;;25.52;52.01
74218;BME280;62579;47.288;18.646;2022-08-19T05:55:37;99313.88;;;25.51;51.91
74218;BME280;62579;47.288;18.646;2022-08-19T05:58:06;99313.53;;;25.70;51.96
74218;BME280;62579;47.288;18.646;2022-08-19T06:00:33;99298.81;;;25.81;51.46
74218;BME280;62579;47.288;18.646;2022-08-19T06:02:58;99297.28;;;25.92;51.25
74218;BME280;62579;47.288;18.646;2022-08-19T06:05:28;99296.25;;;25.99;50.47
74218;BME280;62579;47.288;18.646;2022-08-19T06:07:54;99299.06;;;26.12;49.91
74218;BME280;62579;47.288;18.646;2022-08-19T06:10:19;99288.78;;;26.29;49.76
74218;BME280;62579;47.288;18.646;2022-08-19T06:15:35;99292.81;;;26.25;49.51
74218;BME280;62579;47.288;18.646;2022-08-19T06:18:00;99295.41;;;26.49;49.24
74218;BME280;62579;47.288;18.646;2022-08-19T06:20:26;99288.25;;;26.59;48.73
74218;BME280;62579;47.288;18.646;2022-08-19T06:22:51;99290.50;;;26.63;48.25
74218;BME280;62579;47.288;18.646;2022-08-19T06:25:17;99289.59;;;26.72;48.29
74218;BME280;62579;47.288;18.646;2022-08-19T06:27:42;99300.44;;;26.79;48.20
74218;BME280;62579;47.288;18.646;2022-08-19T06:30:08;99300.44;;;26.79;47.92
74218;BME280;62579;47.288;18.646;2022-08-19T06:32:35;99314.28;;;26.91;47.87
74218;BME280;62579;47.288;18.646;2022-08-19T06:35:00;99316.66;;;26.97;47.55
74218;BME280;62579;47.288;18.646;2022-08-19T06:37:26;99317.56;;;27.01;47.50
74218;BME280;62579;47.288;18.646;2022-08-19T06:39:51;99327.81;;;27.10;47.38
74218;BME280;62579;47.288;18.646;2022-08-19T06:42:16;99323.34;;;27.19;47.15
74218;BME280;62579;47.288;18.646;2022-08-19T06:44:43;99327.63;;;27.35;46.96
74218;BME280;62579;47.288;18.646;2022-08-19T06:47:13;99335.72;;;27.43;46.94
74218;BME280;62579;47.288;18.646;2022-08-19T06:49:38;99334.12;;;27.69;46.84
74218;BME280;62579;47.288;18.646;2022-08-19T06:52:05;99340.19;;;27.79;46.73
74218;BME280;62579;47.288;18.646;2022-08-19T06:54:30;99331.16;;;27.81;45.88
74218;BME280;62579;47.288;18.646;2022-08-19T06:56:57;99332.56;;;28.11;46.03
74218;BME280;62579;47.288;18.646;2022-08-19T06:59:24;99336.63;;;28.08;45.17
74218;BME280;62579;47.288;18.646;2022-08-19T07:01:54;99343.97;;;28.15;44.87
74218;BME280;62579;47.288;18.646;2022-08-19T07:04:22;99339.34;;;28.37;44.55
74218;BME280;62579;47.288;18.646;2022-08-19T07:06:50;99336.53;;;28.37;44.04
74218;BME280;62579;47.288;18.646;2022-08-19T07:09:17;99329.56;;;28.54;43.22
74218;BME280;62579;47.288;18.646;2022-08-19T07:11:50;99321.81;;;28.52;43.59
74218;BME280;62579;47.288;18.646;2022-08-19T07:14:17;99325.47;;;28.73;43.18
74218;BME280;62579;47.288;18.646;2022-08-19T07:16:44;99329.09;;;28.59;42.98
74218;BME280;62579;47.288;18.646;2022-08-19T07:19:10;99328.84;;;28.69;43.03
74218;BME280;62579;47.288;18.646;2022-08-19T07:21:36;99335.22;;;28.87;42.91
74218;BME280;62579;47.288;18.646;2022-08-19T07:24:02;99328.59;;;28.96;42.90
74218;BME280;62579;47.288;18.646;2022-08-19T07:26:31;99334.03;;;29.10;42.56
74218;BME280;62579;47.288;18.646;2022-08-19T07:28:57;99331.47;;;28.98;42.17
74218;BME280;62579;47.288;18.646;2022-08-19T07:31:26;99334.94;;;29.14;42.25
74218;BME280;62579;47.288;18.646;2022-08-19T07:33:53;99340.41;;;28.95;42.42
74218;BME280;62579;47.288;18.646;2022-08-19T07:36:23;99328.53;;;29.12;42.16
74218;BME280;62579;47.288;18.646;2022-08-19T07:38:50;99334.09;;;29.28;41.77
74218;BME280;62579;47.288;18.646;2022-08-19T07:41:20;99338.00;;;29.38;41.75
74218;BME280;62579;47.288;18.646;2022-08-19T07:43:46;99341.78;;;29.27;41.74
74218;BME280;62579;47.288;18.646;2022-08-19T07:46:13;99335.44;;;29.62;41.59
74218;BME280;62579;47.288;18.646;2022-08-19T07:48:41;99340.97;;;29.60;40.91
74218;BME280;62579;47.288;18.646;2022-08-19T07:51:09;99341.59;;;29.76;41.22
74218;BME280;62579;47.288;18.646;2022-08-19T07:53:36;99352.28;;;29.80;40.81
74218;BME280;62579;47.288;18.646;2022-08-19T07:56:02;99354.03;;;29.89;40.59
74218;BME280;62579;47.288;18.646;2022-08-19T07:58:31;99360.19;;;30.03;40.47
74218;BME280;62579;47.288;18.646;2022-08-19T08:00:58;99345.78;;;29.93;40.55
74218;BME280;62579;47.288;18.646;2022-08-19T08:03:24;99343.56;;;30.09;40.18
74218;BME280;62579;47.288;18.646;2022-08-19T08:06:10;99343.34;;;30.03;40.11
74218;BME280;62579;47.288;18.646;2022-08-19T08:08:54;99337.22;;;30.08;40.25
74218;BME280;62579;47.288;18.646;2022-08-19T08:11:40;99326.72;;;30.28;39.89
74218;BME280;62579;47.288;18.646;2022-08-19T08:14:07;99321.63;;;30.03;39.87
74218;BME280;62579;47.288;18.646;2022-08-19T08:16:37;99323.91;;;30.09;40.09
74218;BME280;62579;47.288;18.646;2022-08-19T08:19:04;99305.94;;;30.16;39.95
74218;BME280;62579;47.288;18.646;2022-08-19T08:21:31;99314.94;;;30.32;39.46
74218;BME280;62579;47.288;18.646;2022-08-19T08:23:57;99320.50;;;30.50;39.52
74218;BME280;62579;47.288;18.646;2022-08-19T08:26:22;99316.00;;;30.62;39.12
74218;BME280;62579;47.288;18.646;2022-08-19T08:28:48;99319.41;;;30.59;39.25
74218;BME280;62579;47.288;18.646;2022-08-19T08:31:14;99311.38;;;30.31;39.03
74218;BME280;62579;47.288;18.646;2022-08-19T08:33:39;99310.19;;;30.56;38.72
74218;BME280;62579;47.288;18.646;2022-08-19T08:36:08;99319.88;;;30.73;39.15
74218;BME280;62579;47.288;18.646;2022-08-19T08:38:36;99322.53;;;30.88;37.99
74218;BME280;62579;47.288;18.646;2022-08-19T08:41:31;99319.03;;;31.10;37.73
74218;BME280;62579;47.288;18.646;2022-08-19T08:43:54;99324.00;;;31.11;37.55
74218;BME280;62579;47.288;18.646;2022-08-19T08:46:27;99308.75;;;31.18;37.01
74218;BME280;62579;47.288;18.646;2022-08-19T08:51:47;99301.91;;;31.23;36.47
74218;BME280;62579;47.288;18.646;2022-08-19T08:54:18;99301.75;;;31.41;36.18
74218;BME280;62579;47.288;18.646;2022-08-19T08:56:45;99302.03;;;31.49;36.18
74218;BME280;62579;47.288;18.646;2022-08-19T08:59:28;99294.56;;;31.81;35.49
74218;BME280;62579;47.288;18.646;2022-08-19T09:01:56;99297.19;;;31.75;35.18
74218;BME280;62579;47.288;18.646;2022-08-19T09:04:22;99288.72;;;31.99;35.37
74218;BME280;62579;47.288;18.646;2022-08-19T09:07:13;99284.91;;;31.88;34.89
74218;BME280;62579;47.288;18.646;2022-08-19T09:09:45;99267.69;;;32.00;34.38
74218;BME280;62579;47.288;18.646;2022-08-19T09:15:00;99282.78;;;32.38;33.93
74218;BME280;62579;47.288;18.646;2022-08-19T09:17:29;99271.63;;;32.17;34.32
74218;BME280;62579;47.288;18.646;2022-08-19T09:22:29;99273.09;;;32.43;33.33
74218;BME280;62579;47.288;18.646;2022-08-19T09:24:55;99275.25;;;32.73;33.21
74218;BME280;62579;47.288;18.646;2022-08-19T09:27:22;99268.94;;;32.74;33.25
74218;BME280;62579;47.288;18.646;2022-08-19T09:29:49;99261.56;;;32.89;32.73
74218;BME280;62579;47.288;18.646;2022-08-19T09:32:15;99253.53;;;33.05;32.75
74218;BME280;62579;47.288;18.646;2022-08-19T09:34:40;99261.84;;;33.01;32.46
74218;BME280;62579;47.288;18.646;2022-08-19T09:37:06;99258.38;;;33.02;32.35
74218;BME280;62579;47.288;18.646;2022-08-19T09:39:32;99258.94;;;32.97;32.57
74218;BME280;62579;47.288;18.646;2022-08-19T09:41:57;99261.31;;;33.06;32.11
74218;BME280;62579;47.288;18.646;2022-08-19T09:44:22;99268.81;;;33.25;32.00
74218;BME280;62579;47.288;18.646;2022-08-19T09:46:48;99267.81;;;33.13;32.00
74218;BME280;62579;47.288;18.646;2022-08-19T09:49:15;99276.19;;;33.41;31.66
74218;BME280;62579;47.288;18.646;2022-08-19T09:51:42;99259.22;;;33.39;31.92
74218;BME280;62579;47.288;18.646;2022-08-19T09:54:07;99261.50;;;33.46;31.61
74218;BME280;62579;47.288;18.646;2022-08-19T09:56:33;99259.44;;;33.49;31.41
74218;BME280;62579;47.288;18.646;2022-08-19T09:58:59;99259.19;;;33.68;31.33
74218;BME280;62579;47.288;18.646;2022-08-19T10:01:26;99255.03;;;33.71;30.91
74218;BME280;62579;47.288;18.646;2022-08-19T10:03:55;99251.56;;;33.75;31.34
74218;BME280;62579;47.288;18.646;2022-08-19T10:06:25;99244.97;;;33.98;30.94
74218;BME280;62579;47.288;18.646;2022-08-19T10:08:54;99236.25;;;33.86;30.77
74218;BME280;62579;47.288;18.646;2022-08-19T10:11:20;99249.00;;;33.89;30.91
74218;BME280;62579;47.288;18.646;2022-08-19T10:13:46;99242.94;;;34.03;30.59
74218;BME280;62579;47.288;18.646;2022-08-19T10:16:15;99246.91;;;33.90;30.91
74218;BME280;62579;47.288;18.646;2022-08-19T10:18:43;99248.31;;;33.89;30.71
74218;BME280;62579;47.288;18.646;2022-08-19T10:21:18;99239.87;;;33.91;30.33
74218;BME280;62579;47.288;18.646;2022-08-19T10:23:47;99238.47;;;34.27;30.29
74218;BME280;62579;47.288;18.646;2022-08-19T10:26:25;99245.28;;;34.12;29.88
74218;BME280;62579;47.288;18.646;2022-08-19T10:28:50;99238.78;;;34.43;29.67
74218;BME280;62579;47.288;18.646;2022-08-19T10:31:20;99237.72;;;34.63;29.58
74218;BME280;62579;47.288;18.646;2022-08-19T10:33:47;99236.16;;;34.56;28.89
74218;BME280;62579;47.288;18.646;2022-08-19T10:36:19;99231.34;;;34.62;29.25
74218;BME280;62579;47.288;18.646;2022-08-19T10:38:46;99234.88;;;34.61;28.78
74218;BME280;62579;47.288;18.646;2022-08-19T10:41:23;99237.56;;;34.55;29.03
74218;BME280;62579;47.288;18.646;2022-08-19T10:43:54;99240.09;;;34.78;29.09
74218;BME280;62579;47.288;18.646;2022-08-19T10:46:22;99237.25;;;34.76;28.95
74218;BME280;62579;47.288;18.646;2022-08-19T10:48:48;99227.12;;;35.07;28.37
74218;BME280;62579;47.288;18.646;2022-08-19T10:51:14;99228.28;;;34.92;28.47
74218;BME280;62579;47.288;18.646;2022-08-19T10:53:58;99228.88;;;34.84;27.92
74218;BME280;62579;47.288;18.646;2022-08-19T11:04:25;99235.53;;;35.53;27.06
74218;BME280;62579;47.288;18.646;2022-08-19T11:06:50;99240.03;;;35.70;26.86
74218;BME280;62579;47.288;18.646;2022-08-19T11:09:21;99227.59;;;35.95;27.22
74218;BME280;62579;47.288;18.646;2022-08-19T11:11:49;99231.06;;;35.90;26.56
74218;BME280;62579;47.288;18.646;2022-08-19T11:14:16;99242.75;;;36.20;26.56
74218;BME280;62579;47.288;18.646;2022-08-19T11:19:32;99224.91;;;36.07;25.91
74218;BME280;62579;47.288;18.646;2022-08-19T11:21:58;99216.50;;;36.15;26.18
74218;BME280;62579;47.288;18.646;2022-08-19T11:24:26;99221.69;;;35.75;26.32
74218;BME280;62579;47.288;18.646;2022-08-19T11:26:54;99227.66;;;36.01;26.12
74218;BME280;62579;47.288;18.646;2022-08-19T11:29:24;99223.16;;;35.80;26.37
74218;BME280;62579;47.288;18.646;2022-08-19T11:31:53;99224.00;;;35.91;26.70
74218;BME280;62579;47.288;18.646;2022-08-19T11:34:21;99220.12;;;35.64;27.20
74218;BME280;62579;47.288;18.646;2022-08-19T11:36:47;99215.72;;;35.51;27.01
74218;BME280;62579;47.288;18.646;2022-08-19T11:39:15;99217.94;;;35.58;26.98
74218;BME280;62579;47.288;18.646;2022-08-19T11:41:41;99215.91;;;35.65;27.04
74218;BME280;62579;47.288;18.646;2022-08-19T11:44:06;99207.69;;;35.89;26.53
74218;BME280;62579;47.288;18.646;2022-08-19T11:46:33;99207.63;;;35.83;26.47
74218;BME280;62579;47.288;18.646;2022-08-19T11:48:59;99209.91;;;35.99;26.51
74218;BME280;62579;47.288;18.646;2022-08-19T11:51:26;99206.69;;;36.29;26.04
74218;BME280;62579;47.288;18.646;2022-08-19T11:53:57;99213.19;;;36.39;26.32
74218;BME280;62579;47.288;18.646;2022-08-19T11:56:23;99215.91;;;36.29;26.10
74218;BME280;62579;47.288;18.646;2022-08-19T11:58:49;99209.53;;;36.29;25.31
74218;BME280;62579;47.288;18.646;2022-08-19T12:01:17;99217.31;;;36.28;25.31
74218;BME280;62579;47.288;18.646;2022-08-19T12:03:44;99208.16;;;36.34;26.07
74218;BME280;62579;47.288;18.646;2022-08-19T12:06:13;99218.84;;;36.39;25.99
74218;BME280;62579;47.288;18.646;2022-08-19T12:08:40;99221.09;;;36.51;25.29
74218;BME280;62579;47.288;18.646;2022-08-19T12:11:06;99212.53;;;36.45;25.39
74218;BME280;62579;47.288;18.646;2022-08-19T12:13:33;99218.19;;;36.45;25.15
74218;BME280;62579;47.288;18.646;2022-08-19T12:15:59;99209.66;;;36.39;24.88
74218;BME280;62579;47.288;18.646;2022-08-19T12:18:25;99203.19;;;36.32;25.05
74218;BME280;62579;47.288;18.646;2022-08-19T12:20:51;99198.94;;;36.31;25.43
74218;BME280;62579;47.288;18.646;2022-08-19T12:23:17;99193.56;;;35.91;25.31
74218;BME280;62579;47.288;18.646;2022-08-19T12:25:47;99189.09;;;35.72;25.54
74218;BME280;62579;47.288;18.646;2022-08-19T12:28:21;99185.13;;;35.97;25.59
74218;BME280;62579;47.288;18.646;2022-08-19T12:30:48;99180.25;;;36.04;26.26
74218;BME280;62579;47.288;18.646;2022-08-19T12:33:17;99176.03;;;36.07;26.02
74218;BME280;62579;47.288;18.646;2022-08-19T12:35:44;99185.22;;;36.03;25.97
74218;BME280;62579;47.288;18.646;2022-08-19T12:38:12;99186.47;;;35.90;25.99
74218;BME280;62579;47.288;18.646;2022-08-19T12:40:38;99206.16;;;35.78;26.91
74218;BME280;62579;47.288;18.646;2022-08-19T12:43:05;99219.59;;;35.24;28.12
74218;BME280;62579;47.288;18.646;2022-08-19T12:45:31;99205.31;;;34.70;29.57
74218;BME280;62579;47.288;18.646;2022-08-19T12:47:56;99204.38;;;34.55;30.31
74218;BME280;62579;47.288;18.646;2022-08-19T12:50:22;99213.66;;;34.62;30.89
74218;BME280;62579;47.288;18.646;2022-08-19T12:52:47;99222.69;;;34.52;30.71
74218;BME280;62579;47.288;18.646;2022-08-19T12:55:13;99230.91;;;34.38;30.82
74218;BME280;62579;47.288;18.646;2022-08-19T12:57:38;99228.25;;;34.48;30.69
74218;BME280;62579;47.288;18.646;2022-08-19T13:00:13;99238.66;;;34.37;30.92
74218;BME280;62579;47.288;18.646;2022-08-19T13:02:40;99242.53;;;34.18;31.30
74218;BME280;62579;47.288;18.646;2022-08-19T13:05:09;99246.37;;;34.35;30.79
74218;BME280;62579;47.288;18.646;2022-08-19T13:07:37;99242.34;;;34.46;30.59
74218;BME280;62579;47.288;18.646;2022-08-19T13:10:04;99234.62;;;34.49;29.89
74218;BME280;62579;47.288;18.646;2022-08-19T13:12:30;99239.69;;;34.16;30.30
74218;BME280;62579;47.288;18.646;2022-08-19T13:17:30;99257.88;;;33.42;32.47
74218;BME280;62579;47.288;18.646;2022-08-19T13:19:58;99254.41;;;33.13;33.25
74218;BME280;62579;47.288;18.646;2022-08-19T13:22:23;99260.31;;;32.96;33.24
74218;BME280;62579;47.288;18.646;2022-08-19T13:24:50;99256.97;;;32.74;33.34
74218;BME280;62579;47.288;18.646;2022-08-19T13:27:15;99258.03;;;32.60;33.46
74218;BME280;62579;47.288;18.646;2022-08-19T13:29:41;99262.06;;;32.81;33.63